createdAt,value
2019-02-22T00:00:51.954Z,58.93
2019-02-22T00:03:22.410Z,62.60
2019-02-22T00:05:52.679Z,62.53
2019-02-22T00:08:26.175Z,62.70
2019-02-22T00:10:56.828Z,64.17
2019-02-22T00:13:27.397Z,66.77
2019-02-22T00:15:57.848Z,56.60
2019-02-22T00:18:28.853Z,62.83
2019-02-22T00:20:59.170Z,64.03
2019-02-22T00:23:30.126Z,57.67
2019-02-22T00:26:02.607Z,59.27
2019-02-22T00:28:37.014Z,60.90
2019-02-22T00:31:07.199Z,68.27
2019-02-22T00:33:37.859Z,68.83
2019-02-22T00:36:09.033Z,57.87
2019-02-22T00:38:39.183Z,61.67
2019-02-22T00:41:09.354Z,59.77
2019-02-22T00:43:41.136Z,60.53
2019-02-22T00:46:11.847Z,61.27
2019-02-22T00:48:44.864Z,60.60
2019-02-22T00:51:15.527Z,58.37
2019-02-22T00:53:46.176Z,59.57
2019-02-22T00:56:17.926Z,59.50
2019-02-22T00:58:51.421Z,63.47
2019-02-22T01:01:21.608Z,62.23
2019-02-22T01:03:51.855Z,66.67
2019-02-22T01:06:23.385Z,61.03
2019-02-22T01:08:54.081Z,62.47
2019-02-22T01:11:24.729Z,61.53
2019-02-22T01:13:57.694Z,62.07
2019-02-22T01:16:28.761Z,61.63
2019-02-22T01:18:59.082Z,64.57
2019-02-22T01:21:29.233Z,63.23
2019-02-22T01:24:02.182Z,59.93
2019-02-22T01:26:33.597Z,62.13
2019-02-22T01:29:05.527Z,62.67
2019-02-22T01:31:35.714Z,62.33
2019-02-22T01:34:07.452Z,63.73
2019-02-22T01:36:41.204Z,60.47
2019-02-22T01:39:14.200Z,64.73
2019-02-22T01:41:45.946Z,65.10
2019-02-22T01:44:26.467Z,63.67
2019-02-22T01:46:56.945Z,65.60
2019-02-22T01:49:27.583Z,64.57
2019-02-22T01:51:58.441Z,61.43
2019-02-22T01:54:30.995Z,63.83
2019-02-22T01:57:01.176Z,61.73
2019-02-22T01:59:32.389Z,63.87
2019-02-22T02:02:02.559Z,64.80
2019-02-22T02:04:32.767Z,69.40
2019-02-22T02:07:03.570Z,65.70
2019-02-22T02:09:34.700Z,66.70
2019-02-22T02:12:04.868Z,61.50
2019-02-22T02:14:35.576Z,68.27
2019-02-22T02:17:06.547Z,64.63
2019-02-22T02:19:37.417Z,66.73
2019-02-22T02:22:07.993Z,64.57
2019-02-22T02:24:40.334Z,65.50
2019-02-22T02:27:10.987Z,64.53
2019-02-22T02:29:43.616Z,59.47
2019-02-22T02:32:14.439Z,62.83
2019-02-22T02:34:45.042Z,60.00
2019-02-22T02:37:17.611Z,61.33
2019-02-22T02:39:48.689Z,62.03
2019-02-22T02:42:19.187Z,63.33
2019-02-22T02:44:49.977Z,63.60
2019-02-22T02:47:20.533Z,62.83
2019-02-22T02:49:51.709Z,63.67
2019-02-22T02:52:22.155Z,61.50
2019-02-22T02:54:52.900Z,59.50
2019-02-22T02:57:23.757Z,61.70
2019-02-22T02:59:55.361Z,63.83
2019-02-22T03:02:28.711Z,63.23
2019-02-22T03:04:59.290Z,61.87
2019-02-22T03:07:44.355Z,63.33
2019-02-22T03:10:16.287Z,60.93
2019-02-22T03:12:47.525Z,62.03
2019-02-22T03:15:20.241Z,63.07
2019-02-22T03:17:50.840Z,60.17
2019-02-22T03:20:21.782Z,58.60
2019-02-22T03:22:52.269Z,52.50
2019-02-22T03:25:22.949Z,54.40
2019-02-22T03:27:53.123Z,52.13
2019-02-22T03:30:24.773Z,52.97
2019-02-22T03:32:55.637Z,49.43
2019-02-22T03:35:26.914Z,51.73
2019-02-22T03:37:58.605Z,48.23
2019-02-22T03:40:29.302Z,50.23
2019-02-22T03:42:59.497Z,49.27
2019-02-22T03:45:29.675Z,46.43
2019-02-22T03:48:01.148Z,47.47
2019-02-22T03:50:32.280Z,46.40
2019-02-22T03:53:09.055Z,45.77
2019-02-22T03:55:39.246Z,48.90
2019-02-22T03:58:10.100Z,49.23
2019-02-22T04:00:41.656Z,46.33
2019-02-22T04:03:12.869Z,48.93
2019-02-22T04:05:43.099Z,43.83
2019-02-22T04:08:13.896Z,46.10
2019-02-22T04:10:44.930Z,45.33
2019-02-22T04:13:15.292Z,45.37
2019-02-22T04:15:45.490Z,43.63
2019-02-22T04:18:15.749Z,43.90
2019-02-22T04:20:47.626Z,41.23
2019-02-22T04:23:18.156Z,43.40
2019-02-22T04:25:49.095Z,42.40
2019-02-22T04:28:19.620Z,43.40
2019-02-22T04:30:51.038Z,42.53
2019-02-22T04:33:21.208Z,41.13
2019-02-22T04:35:53.537Z,44.80
2019-02-22T04:38:24.233Z,43.30
2019-02-22T04:40:56.261Z,47.60
2019-02-22T04:43:27.496Z,45.13
2019-02-22T04:45:57.984Z,45.23
2019-02-22T04:48:29.466Z,45.77
2019-02-22T04:51:01.839Z,44.37
2019-02-22T04:53:34.019Z,43.90
2019-02-22T04:56:05.172Z,45.40
2019-02-22T04:58:35.967Z,45.30
2019-02-22T05:01:07.403Z,47.23
2019-02-22T05:03:38.041Z,47.77
2019-02-22T05:06:09.366Z,44.97
2019-02-22T05:08:39.690Z,46.37
2019-02-22T05:11:10.776Z,47.50
2019-02-22T05:13:41.592Z,50.20
2019-02-22T05:16:11.850Z,47.47
2019-02-22T05:18:42.033Z,48.90
2019-02-22T05:21:13.614Z,49.23
2019-02-22T05:23:44.104Z,52.27
2019-02-22T05:26:14.372Z,52.93
2019-02-22T05:28:44.962Z,55.57
2019-02-22T05:31:16.071Z,54.67
2019-02-22T05:33:46.592Z,58.67
2019-02-22T05:36:17.731Z,55.87
2019-02-22T05:38:49.172Z,56.00
2019-02-22T05:41:20.807Z,55.80
2019-02-22T05:43:50.986Z,61.00
2019-02-22T05:46:21.686Z,59.43
2019-02-22T05:48:52.979Z,59.70
2019-02-22T05:51:24.088Z,65.93
2019-02-22T05:53:58.277Z,65.27
2019-02-22T05:56:28.466Z,67.20
2019-02-22T05:58:58.628Z,63.67
2019-02-22T06:01:29.515Z,67.87
2019-02-22T06:04:00.131Z,63.07
2019-02-22T06:06:30.367Z,67.73
2019-02-22T06:09:00.811Z,62.33
2019-02-22T06:11:33.153Z,66.47
2019-02-22T06:14:10.473Z,65.60
2019-02-22T06:17:14.691Z,72.07
2019-02-22T06:20:03.886Z,65.47
2019-02-22T06:22:36.328Z,69.73
2019-02-22T06:25:07.652Z,68.93
2019-02-22T06:27:37.845Z,68.97
2019-02-22T06:30:09.176Z,69.23
2019-02-22T06:32:42.144Z,75.27
2019-02-22T06:35:12.136Z,73.30
2019-02-22T06:37:43.799Z,75.87
2019-02-22T06:40:24.674Z,71.33
2019-02-22T06:42:55.377Z,75.90
2019-02-22T06:45:27.206Z,78.90
2019-02-22T06:48:00.526Z,79.47
2019-02-22T06:50:33.975Z,78.60
2019-02-22T06:53:04.831Z,79.20
2019-02-22T06:55:36.097Z,77.33
2019-02-22T06:58:07.416Z,83.33
2019-02-22T07:00:38.455Z,76.20
2019-02-22T07:03:10.973Z,81.60
2019-02-22T07:05:41.626Z,79.07
2019-02-22T07:08:11.919Z,80.30
2019-02-22T07:11:00.411Z,80.87
2019-02-22T07:13:31.452Z,81.73
2019-02-22T07:16:02.509Z,80.07
2019-02-22T07:18:32.837Z,81.17
2019-02-22T07:21:03.024Z,76.27
2019-02-22T07:23:33.268Z,79.97
2019-02-22T07:26:04.091Z,78.30
2019-02-22T07:28:36.456Z,79.03
2019-02-22T07:31:07.764Z,84.00
2019-02-22T07:33:38.038Z,77.80
2019-02-22T07:36:08.696Z,80.60
2019-02-22T07:38:39.817Z,81.67
2019-02-22T07:41:12.209Z,81.93
2019-02-22T07:43:42.495Z,78.40
2019-02-22T07:46:13.847Z,79.93
2019-02-22T07:48:48.263Z,81.13
2019-02-22T07:51:19.151Z,78.07
2019-02-22T07:53:49.379Z,73.83
2019-02-22T07:56:19.875Z,78.03
2019-02-22T07:58:51.078Z,84.43
2019-02-22T08:01:22.332Z,81.40
2019-02-22T08:03:55.378Z,85.37
2019-02-22T08:06:26.161Z,83.20
2019-02-22T08:08:56.895Z,83.27
2019-02-22T08:11:28.034Z,88.07
2019-02-22T08:13:58.852Z,85.60
2019-02-22T08:16:30.673Z,86.63
2019-02-22T08:19:02.835Z,88.47
2019-02-22T08:21:34.431Z,85.73
2019-02-22T08:24:05.692Z,86.77
2019-02-22T08:26:35.885Z,88.43
2019-02-22T08:29:06.530Z,88.43
2019-02-22T08:31:38.290Z,80.57
2019-02-22T08:34:10.226Z,90.87
2019-02-22T08:36:41.297Z,85.00
2019-02-22T08:39:12.932Z,78.40
2019-02-22T08:41:45.238Z,85.93
2019-02-22T08:44:15.917Z,91.90
2019-02-22T08:46:47.030Z,91.50
2019-02-22T08:49:20.230Z,93.03
2019-02-22T08:51:50.444Z,97.50
2019-02-22T08:54:21.351Z,97.37
2019-02-22T08:56:52.515Z,99.47
2019-02-22T08:59:24.632Z,103.07
2019-02-22T09:01:55.904Z,105.50
2019-02-22T09:04:27.571Z,98.97
2019-02-22T09:07:00.818Z,99.20
2019-02-22T09:09:31.761Z,102.77
2019-02-22T09:12:02.915Z,98.67
2019-02-22T09:14:33.867Z,98.93
2019-02-22T09:17:04.665Z,98.47
2019-02-22T09:19:36.971Z,96.17
2019-02-22T09:22:07.221Z,185.60
2019-02-22T09:24:37.789Z,101.27
2019-02-22T09:27:08.395Z,91.83
2019-02-22T09:29:39.383Z,86.13
2019-02-22T09:32:10.079Z,88.40
2019-02-22T09:34:46.195Z,86.83
2019-02-22T09:37:26.977Z,87.43
2019-02-22T09:40:09.098Z,85.90
2019-02-22T09:42:41.752Z,87.33
2019-02-22T09:45:20.327Z,80.93
2019-02-22T09:47:51.780Z,120.60
2019-02-22T09:50:23.455Z,78.53
2019-02-22T09:52:53.618Z,77.30
2019-02-22T09:55:25.783Z,77.97
2019-02-22T09:57:57.294Z,77.90
2019-02-22T10:00:28.411Z,75.23
2019-02-22T10:02:58.551Z,74.50
2019-02-22T10:05:29.805Z,66.40
2019-02-22T10:08:00.330Z,70.97
2019-02-22T10:10:30.982Z,71.93
2019-02-22T10:13:02.023Z,77.17
2019-02-22T10:15:32.932Z,69.47
2019-02-22T10:18:03.435Z,69.77
2019-02-22T10:20:33.636Z,65.03
2019-02-22T10:23:05.173Z,68.77
2019-02-22T10:25:36.570Z,65.43
2019-02-22T10:28:17.212Z,60.10
2019-02-22T10:30:41.920Z,57.93
2019-02-22T10:33:13.100Z,57.60
2019-02-22T10:35:45.866Z,64.87
2019-02-22T10:38:19.948Z,69.33
2019-02-22T10:40:50.873Z,112.83
2019-02-22T10:43:22.165Z,63.23
2019-02-22T10:45:52.850Z,53.77
2019-02-22T10:48:23.019Z,55.43
2019-02-22T10:50:53.248Z,51.83
2019-02-22T10:53:23.453Z,46.97
2019-02-22T10:55:54.538Z,47.43
2019-02-22T10:58:25.350Z,44.20
2019-02-22T11:00:55.561Z,51.13
2019-02-22T11:03:26.124Z,47.50
2019-02-22T11:05:56.655Z,47.30
2019-02-22T11:08:26.848Z,44.70
2019-02-22T11:10:58.228Z,45.60
2019-02-22T11:13:28.915Z,38.40
2019-02-22T11:15:59.106Z,38.10
2019-02-22T11:18:30.131Z,35.70
2019-02-22T11:21:00.828Z,34.90
2019-02-22T11:23:30.987Z,32.67
2019-02-22T11:26:02.645Z,31.13
2019-02-22T11:28:33.307Z,25.57
2019-02-22T11:31:04.348Z,25.90
2019-02-22T11:33:34.932Z,89.37
2019-02-22T11:36:05.749Z,26.63
2019-02-22T11:38:37.210Z,25.37
2019-02-22T11:41:07.938Z,27.10
2019-02-22T11:43:38.985Z,26.73
2019-02-22T11:46:09.786Z,25.90
2019-02-22T11:48:40.900Z,26.40
2019-02-22T11:51:11.088Z,28.03
2019-02-22T11:53:41.646Z,28.10
2019-02-22T11:56:12.925Z,22.97
2019-02-22T11:58:43.115Z,25.07
2019-02-22T12:01:14.469Z,21.90
2019-02-22T12:03:45.038Z,22.33
2019-02-22T12:06:16.181Z,21.83
2019-02-22T12:08:46.443Z,19.27
2019-02-22T12:11:17.822Z,21.67
2019-02-22T12:13:48.923Z,18.90
2019-02-22T12:16:19.452Z,18.80
2019-02-22T12:18:50.729Z,19.43
2019-02-22T12:21:23.146Z,16.93
2019-02-22T12:23:53.765Z,17.03
2019-02-22T12:26:25.114Z,15.40
2019-02-22T12:28:55.878Z,14.23
2019-02-22T12:31:27.063Z,16.33
2019-02-22T12:33:57.206Z,16.07
2019-02-22T12:36:27.688Z,11.77
2019-02-22T12:38:58.194Z,9.13
2019-02-22T12:41:29.035Z,8.93
2019-02-22T12:44:03.787Z,10.93
2019-02-22T12:46:34.808Z,10.30
2019-02-22T12:49:05.143Z,10.27
2019-02-22T12:51:35.809Z,11.93
2019-02-22T12:54:06.643Z,13.77
2019-02-22T12:59:09.198Z,13.17
2019-02-22T13:01:39.370Z,8.83
2019-02-22T13:04:11.156Z,8.57
2019-02-22T13:06:41.871Z,7.23
2019-02-22T13:09:12.642Z,8.57
2019-02-22T13:11:42.890Z,10.60
2019-02-22T13:14:15.825Z,8.77
2019-02-22T13:16:47.088Z,7.70
2019-02-22T13:19:19.393Z,8.23
2019-02-22T13:21:50.075Z,7.05
2019-02-22T13:24:20.228Z,6.53
2019-02-22T13:26:51.077Z,6.70
2019-02-22T13:29:21.282Z,7.53
2019-02-22T13:31:53.418Z,5.95
2019-02-22T13:34:24.352Z,8.28
2019-02-22T13:36:56.701Z,5.28
2019-02-22T13:39:28.032Z,5.70
2019-02-22T13:41:58.642Z,5.23
2019-02-22T13:44:32.214Z,5.47
2019-02-22T13:47:02.888Z,4.87
2019-02-22T13:49:33.100Z,7.20
2019-02-22T13:52:03.250Z,7.90
2019-02-22T13:54:34.374Z,9.10
2019-02-22T13:57:05.081Z,6.87
2019-02-22T13:59:35.388Z,5.67
2019-02-22T14:02:05.995Z,7.83
2019-02-22T14:04:37.033Z,6.97
2019-02-22T14:07:08.038Z,6.00
2019-02-22T14:09:39.568Z,5.60
2019-02-22T14:12:11.361Z,6.63
2019-02-22T14:14:42.555Z,8.23
2019-02-22T14:17:13.528Z,6.43
2019-02-22T14:19:44.117Z,7.37
2019-02-22T14:22:14.927Z,7.80
2019-02-22T14:24:45.952Z,8.63
2019-02-22T14:27:16.897Z,11.00
2019-02-22T14:29:48.067Z,7.23
2019-02-22T14:32:18.652Z,6.83
2019-02-22T14:34:48.800Z,8.30
2019-02-22T14:37:20.107Z,9.20
2019-02-22T14:40:01.004Z,9.07
2019-02-22T14:42:23.360Z,8.67
2019-02-22T14:44:55.907Z,8.03
2019-02-22T14:47:27.575Z,10.33
2019-02-22T14:49:58.053Z,7.40
2019-02-22T14:52:28.622Z,8.17
2019-02-22T14:54:59.872Z,7.20
2019-02-22T14:57:31.864Z,10.70
2019-02-22T15:00:02.046Z,9.67
2019-02-22T15:02:32.824Z,9.03
2019-02-22T15:05:03.550Z,7.23
2019-02-22T15:07:34.530Z,6.63
2019-02-22T15:10:05.752Z,6.83
2019-02-22T15:12:37.381Z,10.57
2019-02-22T15:15:09.305Z,8.53
2019-02-22T15:17:55.521Z,8.77
2019-02-22T15:20:26.686Z,7.63
2019-02-22T15:22:58.459Z,10.67
2019-02-22T15:25:29.902Z,5.83
2019-02-22T15:28:01.597Z,8.37
2019-02-22T15:30:32.901Z,7.67
2019-02-22T15:33:05.577Z,9.63
2019-02-22T15:35:35.893Z,6.97
2019-02-22T15:38:06.608Z,6.50
2019-02-22T15:40:39.286Z,7.13
2019-02-22T15:43:10.664Z,10.67
2019-02-22T15:45:42.224Z,7.33
2019-02-22T15:48:14.580Z,7.83
2019-02-22T15:50:46.248Z,11.13
2019-02-22T15:53:17.627Z,8.93
2019-02-22T15:55:48.405Z,10.57
2019-02-22T15:58:21.868Z,8.03
2019-02-22T16:00:53.543Z,8.10
2019-02-22T16:03:26.818Z,9.20
2019-02-22T16:05:58.070Z,9.93
2019-02-22T16:08:34.932Z,6.63
2019-02-22T16:11:08.224Z,11.13
2019-02-22T16:14:07.298Z,12.00
2019-02-22T16:16:44.990Z,9.13
2019-02-22T16:19:19.409Z,8.80
2019-02-22T16:21:49.590Z,9.93
2019-02-22T16:24:20.364Z,8.37
2019-02-22T16:27:03.753Z,9.07
2019-02-22T16:29:36.987Z,9.07
2019-02-22T16:32:07.239Z,12.53
2019-02-22T16:34:43.552Z,12.10
2019-02-22T16:37:09.760Z,8.63
2019-02-22T16:39:40.998Z,10.37
2019-02-22T16:42:12.842Z,14.23
2019-02-22T16:44:43.633Z,10.90
2019-02-22T16:47:15.223Z,11.53
2019-02-22T16:49:46.718Z,13.83
2019-02-22T16:52:17.299Z,8.90
2019-02-22T16:54:48.057Z,11.17
2019-02-22T16:57:18.854Z,8.97
2019-02-22T16:59:51.201Z,9.80
2019-02-22T17:02:21.337Z,8.90
2019-02-22T17:04:52.134Z,10.23
2019-02-22T17:07:22.327Z,9.80
2019-02-22T17:09:53.041Z,10.03
2019-02-22T17:12:23.638Z,9.73
2019-02-22T17:14:54.300Z,13.40
2019-02-22T17:17:24.491Z,11.60
2019-02-22T17:19:55.121Z,10.27
2019-02-22T17:22:26.270Z,11.47
2019-02-22T17:24:57.379Z,12.20
2019-02-22T17:27:29.900Z,13.20
2019-02-22T17:30:02.408Z,14.73
2019-02-22T17:32:34.597Z,12.80
2019-02-22T17:35:05.937Z,12.83
2019-02-22T17:37:36.175Z,16.00
2019-02-22T17:40:10.197Z,12.27
2019-02-22T17:42:40.968Z,12.83
2019-02-22T17:45:13.163Z,14.43
2019-02-22T17:47:45.339Z,15.17
2019-02-22T17:50:16.454Z,12.53
2019-02-22T17:52:46.943Z,11.27
2019-02-22T17:55:17.157Z,12.00
2019-02-22T17:57:47.314Z,12.60
2019-02-22T18:00:21.442Z,13.40
2019-02-22T18:02:51.724Z,15.07
2019-02-22T18:05:21.914Z,12.40
2019-02-22T18:07:52.102Z,13.00
2019-02-22T18:10:22.650Z,15.73
2019-02-22T18:12:52.821Z,15.90
2019-02-22T18:15:23.013Z,14.40
2019-02-22T18:17:53.200Z,13.60
2019-02-22T18:20:24.537Z,16.93
2019-02-22T18:22:55.199Z,14.30
2019-02-22T18:25:25.743Z,18.27
2019-02-22T18:27:57.882Z,18.07
2019-02-22T18:30:29.363Z,16.60
2019-02-22T18:32:59.531Z,16.47
2019-02-22T18:35:30.140Z,20.03
2019-02-22T18:38:01.957Z,18.67
2019-02-22T18:40:32.119Z,19.93
2019-02-22T18:43:02.305Z,18.93
2019-02-22T18:45:32.933Z,17.43
2019-02-22T18:48:05.025Z,17.53
2019-02-22T18:50:36.478Z,20.10
2019-02-22T18:53:06.633Z,20.43
2019-02-22T18:55:37.449Z,19.00
2019-02-22T18:58:08.644Z,20.43
2019-02-22T19:00:39.358Z,16.43
2019-02-22T19:03:11.050Z,20.73
2019-02-22T19:05:41.565Z,18.13
2019-02-22T19:08:11.733Z,21.10
2019-02-22T19:10:43.089Z,20.77
2019-02-22T19:13:14.310Z,20.10
2019-02-22T19:15:44.831Z,23.83
2019-02-22T19:18:14.984Z,22.73
2019-02-22T19:20:46.133Z,24.53
2019-02-22T19:23:16.322Z,25.47
2019-02-22T19:25:46.476Z,21.80
2019-02-22T19:28:17.090Z,26.67
2019-02-22T19:30:48.240Z,25.67
2019-02-22T19:33:18.863Z,26.03
2019-02-22T19:35:49.035Z,28.47
2019-02-22T19:38:19.460Z,30.00
2019-02-22T19:40:49.922Z,29.97
2019-02-22T19:43:21.956Z,32.70
2019-02-22T19:45:53.583Z,28.30
2019-02-22T19:48:25.351Z,35.00
2019-02-22T19:50:55.984Z,33.70
2019-02-22T19:53:26.594Z,31.37
2019-02-22T19:55:56.764Z,33.83
2019-02-22T19:58:27.223Z,32.37
2019-02-22T20:00:57.399Z,30.33
2019-02-22T20:03:28.534Z,34.00
2019-02-22T20:05:59.602Z,26.97
2019-02-22T20:08:31.463Z,29.90
2019-02-22T20:11:02.328Z,28.13
2019-02-22T20:13:32.674Z,26.70
2019-02-22T20:16:03.904Z,30.60
2019-02-22T20:18:35.403Z,34.60
2019-02-22T20:21:05.593Z,28.67
2019-02-22T20:23:35.879Z,30.07
2019-02-22T20:26:07.229Z,32.03
2019-02-22T20:28:37.464Z,29.10
2019-02-22T20:31:19.576Z,28.07
2019-02-22T20:33:40.936Z,33.70
2019-02-22T20:36:12.289Z,29.77
2019-02-22T20:38:43.015Z,32.53
2019-02-22T20:41:13.429Z,28.07
2019-02-22T20:43:43.684Z,28.00
2019-02-22T20:46:14.714Z,26.17
2019-02-22T20:48:48.066Z,27.40
2019-02-22T20:51:20.043Z,31.03
2019-02-22T20:53:50.210Z,27.83
2019-02-22T20:56:20.823Z,30.07
2019-02-22T20:58:51.369Z,27.87
2019-02-22T21:01:22.100Z,26.20
2019-02-22T21:03:52.522Z,29.07
2019-02-22T21:06:24.740Z,28.73
2019-02-22T21:08:56.152Z,27.57
2019-02-22T21:11:26.884Z,27.90
2019-02-22T21:13:59.746Z,30.53
2019-02-22T21:16:31.546Z,27.87
2019-02-22T21:19:02.578Z,32.83
2019-02-22T21:21:35.493Z,29.60
2019-02-22T21:24:06.077Z,26.17
2019-02-22T21:26:36.334Z,28.63
2019-02-22T21:29:06.526Z,28.03
2019-02-22T21:31:37.409Z,27.07
2019-02-22T21:34:07.591Z,27.83
2019-02-22T21:36:39.485Z,25.73
2019-02-22T21:39:10.411Z,26.40
2019-02-22T21:41:41.408Z,28.93
2019-02-22T21:44:11.895Z,26.83
2019-02-22T21:46:42.522Z,26.27
2019-02-22T21:49:14.345Z,29.50
2019-02-22T21:51:46.263Z,26.27
2019-02-22T21:54:16.432Z,28.70
2019-02-22T21:56:46.709Z,27.73
2019-02-22T21:59:17.410Z,30.53
2019-02-22T22:01:48.036Z,31.10
2019-02-22T22:04:18.553Z,28.97
2019-02-22T22:06:49.901Z,29.90
2019-02-22T22:09:22.141Z,34.53
2019-02-22T22:11:53.527Z,32.47
2019-02-22T22:14:25.036Z,33.27
2019-02-22T22:16:55.207Z,32.37
2019-02-22T22:19:25.404Z,30.40
2019-02-22T22:21:56.014Z,30.10
2019-02-22T22:24:26.599Z,34.87
2019-02-22T22:26:57.356Z,30.53
2019-02-22T22:29:27.548Z,36.63
2019-02-22T22:31:57.754Z,34.90
2019-02-22T22:34:27.931Z,36.37
2019-02-22T22:36:59.650Z,39.13
2019-02-22T22:39:30.470Z,33.97
2019-02-22T22:42:02.479Z,40.80
2019-02-22T22:44:33.628Z,37.53
2019-02-22T22:47:04.393Z,39.43
2019-02-22T22:49:35.959Z,37.57
2019-02-22T22:52:09.798Z,35.27
2019-02-22T22:57:23.413Z,34.83
2019-02-22T22:59:53.574Z,35.23
2019-02-22T23:02:24.545Z,33.67
2019-02-22T23:04:55.049Z,31.70
2019-02-22T23:07:25.750Z,31.00
2019-02-22T23:09:55.913Z,30.73
2019-02-22T23:12:27.725Z,37.00
2019-02-22T23:14:59.438Z,38.10
2019-02-22T23:17:30.863Z,31.20
2019-02-22T23:20:02.648Z,29.40
2019-02-22T23:22:33.812Z,27.27
2019-02-22T23:25:04.228Z,30.97
2019-02-22T23:27:35.542Z,29.20
2019-02-22T23:30:06.154Z,29.07
2019-02-22T23:32:36.685Z,29.13
2019-02-22T23:35:06.965Z,31.77
2019-02-22T23:37:37.742Z,29.03
2019-02-22T23:40:07.923Z,34.00
2019-02-22T23:42:38.649Z,32.80
2019-02-22T23:45:10.001Z,35.13
2019-02-22T23:47:41.042Z,32.57
2019-02-22T23:50:12.391Z,32.60
2019-02-22T23:52:42.537Z,33.07
2019-02-22T23:55:13.344Z,37.97
2019-02-22T23:57:46.553Z,38.50
